Archival Weather

Eureka

Eureka, Canada (CWEU)

Report from: Tuesday, May 21, 2024 6:00 AM CDT
Current time: Saturday, June 22, 2024 5:02 AM CDT

Current weather – Weather history – Daily summaries
Weather forecast

Present weatherLight snow
Temperature-7.0°C (19.4°F)
Wind chill-12.0°C (10.4°F)
Dew point-10.0°C (14.0°F)
Winds 6 kts (3.1 m/s, 6.9 mph) North-Northwest (330°)
Visibility15 mi. (24.1 km)
Clouds Ceiling: Overcast 2,900 ft. (884 m)
Altimeter30.25 in.Hg (1024 mB)
Relative humidity79 %
Density altitude-3,110 ft. (-948 m)
Sea-level pressure102.6 kPa (1026 mB, 30.29 in.Hg)
Flight conditions Marginal Visual Meteorological Conditions
Raw dataCWEU 211100Z 33006KT 15SM -SN OVC029 M07/M10 A3025 RMK SC8 SLP257
An error has occurred. This application may no longer respond until reloaded. Reload 🗙